Time;durP1;ratioP1;P1;durP2;ratioP2;P2;SDS_P1;SDS_P2;PMS_P1;PMS_P2;Temp;Humidity;BMP_temperature;BMP_pressure;BME280_temperature;BME280_humidity;BME280_pressure;Samples;Min_cycle;Max_cycle;Signal;HPM_P1;HPM_P2
2021/09/20 00:00:36;;;;;;;0.30;0.20;;;;;;;13.39;72.71;92635.03;2057519;69;20149;-77
2021/09/20 00:03:01;;;;;;;2.50;0.20;;;;;;;13.50;72.13;92636.25;2056772;69;20866;-76
2021/09/20 00:05:27;;;;;;;1.48;0.20;;;;;;;13.47;71.75;92638.97;2057436;69;20169;-77
2021/09/20 00:07:52;;;;;;;2.05;0.30;;;;;;;13.48;71.35;92631.22;2057255;69;20288;-77
2021/09/20 00:10:18;;;;;;;2.20;0.30;;;;;;;13.26;73.42;92636.50;2057366;69;20152;-75
2021/09/20 00:12:44;;;;;;;0.13;0.13;;;;;;;13.42;71.90;92637.31;2057192;69;20134;-76
2021/09/20 00:15:11;;;;;;;1.05;0.17;;;;;;;13.33;73.28;92637.53;2057446;69;20233;-76
2021/09/20 00:17:36;;;;;;;0.10;0.10;;;;;;;13.43;71.62;92638.78;2057598;69;20158;-77
2021/09/20 00:20:05;;;;;;;0.22;0.08;;;;;;;13.33;72.63;92629.81;2057343;69;20182;-77
2021/09/20 00:22:31;;;;;;;1.25;0.10;;;;;;;13.33;72.37;92634.69;2057570;69;20549;-77
2021/09/20 00:24:57;;;;;;;0.80;0.15;;;;;;;13.39;72.02;92638.56;2057603;69;20224;-76
2021/09/20 00:27:22;;;;;;;1.63;0.13;;;;;;;13.28;73.41;92630.22;2057770;69;20216;-76
2021/09/20 00:29:48;;;;;;;0.00;0.00;;;;;;;13.17;73.88;92634.59;2057034;69;20180;-77
2021/09/20 00:32:13;;;;;;;0.50;0.17;;;;;;;13.30;72.49;92631.06;2057445;69;20200;-76
2021/09/20 00:34:39;;;;;;;0.30;0.10;;;;;;;13.20;73.38;92628.44;2056852;69;20220;-77
2021/09/20 00:37:05;;;;;;;0.10;0.08;;;;;;;13.29;72.50;92629.59;2057468;69;20173;-78
2021/09/20 00:39:30;;;;;;;1.05;0.20;;;;;;;13.26;72.75;92628.03;2057375;69;20545;-78
2021/09/20 00:41:56;;;;;;;1.10;0.15;;;;;;;13.26;72.89;92639.34;2057869;69;20152;-78
2021/09/20 00:44:21;;;;;;;0.93;0.17;;;;;;;13.27;72.92;92632.31;2057694;69;20233;-77
2021/09/20 00:46:47;;;;;;;0.30;0.15;;;;;;;13.28;73.23;92633.03;2058022;69;20617;-78
2021/09/20 00:49:13;;;;;;;0.35;0.20;;;;;;;13.30;72.60;92638.81;2057768;69;20197;-76
2021/09/20 00:51:38;;;;;;;1.30;0.20;;;;;;;13.38;71.74;92639.22;2058070;69;20141;-77
2021/09/20 00:54:04;;;;;;;0.55;0.20;;;;;;;13.28;72.15;92633.03;2057916;69;20248;-77
2021/09/20 00:56:30;;;;;;;0.13;0.13;;;;;;;13.34;71.81;92633.34;2058221;69;20587;-77
2021/09/20 00:58:56;;;;;;;1.15;0.10;;;;;;;13.24;73.04;92633.59;2058040;69;20154;-76
2021/09/20 01:01:22;;;;;;;0.28;0.10;;;;;;;13.28;72.44;92630.94;2058389;69;20164;-76
2021/09/20 01:03:48;;;;;;;0.10;0.10;;;;;;;13.27;72.50;92642.88;2057849;69;20177;-77
2021/09/20 01:06:13;;;;;;;0.25;0.10;;;;;;;13.17;73.44;92640.25;2058211;69;20177;-77
2021/09/20 01:08:39;;;;;;;0.10;0.10;;;;;;;13.22;72.64;92639.84;2058104;69;20134;-77
2021/09/20 01:11:05;;;;;;;0.40;0.10;;;;;;;13.16;73.34;92645.19;2058329;69;20551;-77
2021/09/20 01:13:30;;;;;;;0.20;0.10;;;;;;;13.26;72.78;92638.59;2058200;69;20243;-76
2021/09/20 01:15:56;;;;;;;3.50;0.20;;;;;;;13.20;72.81;92645.38;2058170;69;20604;-77
2021/09/20 01:18:22;;;;;;;0.10;0.10;;;;;;;13.20;72.39;92644.66;2058178;69;20154;-77
2021/09/20 01:20:48;;;;;;;0.60;0.10;;;;;;;13.18;72.78;92645.28;2058243;69;20145;-76
2021/09/20 01:23:14;;;;;;;0.22;0.20;;;;;;;13.17;71.65;92643.09;2057829;69;20212;-77
2021/09/20 01:25:42;;;;;;;0.47;0.08;;;;;;;13.11;73.38;92645.63;2057282;69;20152;-77
2021/09/20 01:28:08;;;;;;;1.15;0.15;;;;;;;13.17;73.08;92657.22;2058125;69;20149;-77
2021/09/20 01:30:34;;;;;;;0.10;0.10;;;;;;;13.17;73.01;92651.56;2058107;69;20137;-77
2021/09/20 01:33:00;;;;;;;0.20;0.10;;;;;;;13.20;72.46;92656.69;2057327;69;20153;-76
2021/09/20 01:35:27;;;;;;;1.95;0.10;;;;;;;13.07;73.52;92648.97;2057549;69;20154;-76
2021/09/20 01:37:53;;;;;;;1.77;0.05;;;;;;;13.19;72.63;92649.59;2058137;69;20141;-77
2021/09/20 01:40:19;;;;;;;0.40;0.10;;;;;;;13.18;72.68;92653.03;2058219;69;20653;-77
2021/09/20 01:42:45;;;;;;;0.57;0.17;;;;;;;13.28;71.33;92658.47;2058152;69;20253;-75
2021/09/20 01:45:12;;;;;;;0.10;0.10;;;;;;;13.19;72.72;92651.66;2058114;69;20236;-76
2021/09/20 01:47:38;;;;;;;1.00;0.00;;;;;;;13.21;72.29;92646.13;2058144;69;20173;-74
2021/09/20 01:50:06;;;;;;;0.00;0.00;;;;;;;13.22;71.53;92654.00;2058100;69;20161;-76
2021/09/20 01:52:32;;;;;;;0.60;0.10;;;;;;;13.28;71.32;92647.16;2058044;69;20166;-76
2021/09/20 01:54:57;;;;;;;0.38;0.10;;;;;;;13.21;72.07;92649.69;2058048;69;20238;-74
2021/09/20 01:57:23;;;;;;;0.30;0.03;;;;;;;13.15;72.16;92649.38;2057366;69;20141;-76
2021/09/20 01:59:50;;;;;;;0.35;0.10;;;;;;;13.09;72.93;92646.22;2057984;69;20578;-76
2021/09/20 02:02:17;;;;;;;0.05;0.05;;;;;;;13.10;72.36;92644.13;2057459;69;20179;-77
2021/09/20 02:04:42;;;;;;;1.30;0.08;;;;;;;13.13;72.64;92651.38;2058162;69;20154;-76
2021/09/20 02:07:08;;;;;;;0.03;0.03;;;;;;;13.23;69.62;92655.44;2057972;69;20636;-76
2021/09/20 02:09:34;;;;;;;0.20;0.10;;;;;;;13.16;71.58;92650.84;2057937;69;20156;-75
2021/09/20 02:12:00;;;;;;;0.10;0.10;;;;;;;13.08;72.59;92644.78;2058056;69;20161;-79
2021/09/20 02:14:25;;;;;;;0.08;0.08;;;;;;;13.24;69.06;92653.38;2057985;69;20169;-76
2021/09/20 02:16:51;;;;;;;1.58;0.20;;;;;;;13.30;70.77;92655.78;2058086;69;20144;-76
2021/09/20 02:19:16;;;;;;;2.15;0.25;;;;;;;12.93;72.82;92659.53;2058030;69;20593;-77
2021/09/20 02:21:42;;;;;;;0.65;0.10;;;;;;;13.11;70.97;92660.47;2057982;69;20157;-77
2021/09/20 02:24:09;;;;;;;0.10;0.10;;;;;;;13.23;70.73;92649.78;2058110;69;20157;-78
2021/09/20 02:26:35;;;;;;;0.70;0.20;;;;;;;13.18;71.94;92662.22;2058241;69;20173;-78
2021/09/20 02:29:00;;;;;;;1.17;0.10;;;;;;;13.26;69.75;92655.56;2058122;69;20151;-78
2021/09/20 02:31:26;;;;;;;0.10;0.10;;;;;;;13.21;72.08;92660.25;2058083;69;20146;-78
2021/09/20 02:33:52;;;;;;;2.05;0.20;;;;;;;13.13;71.45;92645.72;2058043;69;20673;-77
2021/09/20 02:36:18;;;;;;;0.50;0.50;;;;;;;13.03;72.87;92656.50;2058058;69;20185;-77
2021/09/20 02:38:43;;;;;;;1.08;0.20;;;;;;;13.09;71.92;92651.16;2057990;69;20549;-78
2021/09/20 02:41:09;;;;;;;1.98;0.50;;;;;;;13.04;72.48;92653.03;2057579;69;20158;-77
2021/09/20 02:43:36;;;;;;;0.38;0.30;;;;;;;13.15;71.30;92654.31;2058149;69;20207;-78
2021/09/20 02:46:01;;;;;;;1.77;0.13;;;;;;;13.07;72.99;92646.13;2057536;69;20589;-76
2021/09/20 02:48:27;;;;;;;0.38;0.30;;;;;;;13.11;71.73;92646.34;2058179;69;20134;-78
2021/09/20 02:50:53;;;;;;;1.73;0.22;;;;;;;13.01;73.47;92642.97;2057969;69;20153;-77
2021/09/20 02:53:19;;;;;;;0.52;0.30;;;;;;;13.07;73.82;92651.06;2057942;69;20203;-79
2021/09/20 02:55:44;;;;;;;0.20;0.20;;;;;;;13.01;73.54;92648.63;2058060;69;20173;-79
2021/09/20 02:58:10;;;;;;;0.35;0.28;;;;;;;12.95;74.24;92640.59;2058057;69;20604;-77
2021/09/20 03:00:36;;;;;;;0.40;0.20;;;;;;;12.95;73.47;92651.88;2058047;69;20150;-79
2021/09/20 03:03:02;;;;;;;0.65;0.20;;;;;;;12.90;73.78;92636.09;2057946;69;20142;-79
2021/09/20 03:05:28;;;;;;;0.50;0.25;;;;;;;12.87;74.67;92647.91;2058014;69;20152;-78
2021/09/20 03:07:53;;;;;;;0.75;0.20;;;;;;;12.95;73.83;92654.00;2058016;69;20237;-78
2021/09/20 03:10:19;;;;;;;2.63;0.32;;;;;;;12.95;74.08;92656.81;2058046;69;20153;-79
2021/09/20 03:12:46;;;;;;;1.85;0.40;;;;;;;12.95;74.05;92656.81;2057959;69;20157;-77
2021/09/20 03:15:12;;;;;;;0.50;0.40;;;;;;;13.00;73.32;92652.09;2057999;69;20598;-78
2021/09/20 03:17:38;;;;;;;1.63;0.30;;;;;;;12.95;74.06;92654.00;2058007;69;20153;-77
2021/09/20 03:20:04;;;;;;;0.68;0.15;;;;;;;13.00;73.64;92657.75;2058103;69;20161;-78
2021/09/20 03:22:30;;;;;;;0.28;0.20;;;;;;;12.96;73.82;92663.91;2058174;69;20272;-77
2021/09/20 03:24:56;;;;;;;0.20;0.20;;;;;;;13.05;72.78;92660.16;2058054;69;20293;-75
2021/09/20 03:27:21;;;;;;;0.30;0.30;;;;;;;13.08;71.65;92661.72;2058229;69;20142;-78
2021/09/20 03:29:47;;;;;;;0.20;0.20;;;;;;;13.01;73.46;92667.69;2057947;69;20219;-77
2021/09/20 03:32:13;;;;;;;2.20;0.35;;;;;;;13.05;73.31;92662.25;2057972;69;20150;-77
2021/09/20 03:34:38;;;;;;;0.85;0.15;;;;;;;12.98;72.58;92676.06;2057886;69;20161;-76
2021/09/20 03:37:04;;;;;;;0.52;0.20;;;;;;;12.95;74.25;92666.03;2057847;69;20584;-78
2021/09/20 03:39:30;;;;;;;0.30;0.30;;;;;;;12.92;74.07;92670.13;2057884;69;20236;-78
2021/09/20 03:41:55;;;;;;;1.05;0.47;;;;;;;13.04;72.24;92675.66;2057924;69;20510;-77
2021/09/20 03:44:21;;;;;;;0.63;0.20;;;;;;;12.97;73.13;92671.06;2057906;69;20129;-78
2021/09/20 03:46:47;;;;;;;0.68;0.20;;;;;;;12.94;73.74;92675.88;2057880;69;20141;-74
2021/09/20 03:49:14;;;;;;;0.40;0.30;;;;;;;12.96;73.46;92680.88;2057957;69;20146;-75
2021/09/20 03:51:39;;;;;;;0.30;0.20;;;;;;;12.96;74.31;92680.88;2057885;69;20299;-79
2021/09/20 03:54:05;;;;;;;0.73;0.40;;;;;;;13.03;73.47;92684.75;2058246;69;20677;-77
2021/09/20 03:56:30;;;;;;;1.83;0.30;;;;;;;12.98;72.83;92678.16;2057990;69;20134;-76
2021/09/20 03:58:56;;;;;;;2.25;0.50;;;;;;;13.03;73.19;92685.50;2057881;69;20149;-78
2021/09/20 04:01:22;;;;;;;3.40;0.32;;;;;;;12.95;73.05;92685.78;2057343;69;20207;-77
2021/09/20 04:03:47;;;;;;;0.38;0.38;;;;;;;12.87;75.20;92681.81;2057849;69;20144;-79
2021/09/20 04:06:13;;;;;;;0.65;0.55;;;;;;;12.98;71.28;92684.56;2057910;69;20153;-78
2021/09/20 04:08:39;;;;;;;1.35;0.32;;;;;;;13.01;73.18;92687.47;2057717;69;20150;-76
2021/09/20 04:11:05;;;;;;;0.40;0.40;;;;;;;13.03;73.31;92684.75;2057834;69;20158;-78
2021/09/20 04:13:30;;;;;;;0.20;0.20;;;;;;;12.95;72.88;92694.28;2057759;69;20138;-79
2021/09/20 04:15:56;;;;;;;0.40;0.30;;;;;;;13.02;73.36;92691.78;2058057;69;20154;-79
2021/09/20 04:18:23;;;;;;;0.88;0.40;;;;;;;12.94;74.71;92694.91;2058358;69;20161;-76
2021/09/20 04:20:51;;;;;;;0.77;0.40;;;;;;;12.91;75.25;92698.97;2058312;69;20252;-78
2021/09/20 04:23:19;;;;;;;0.57;0.40;;;;;;;12.83;75.63;92693.66;2058245;69;20146;-79
2021/09/20 04:25:46;;;;;;;1.17;0.30;;;;;;;12.93;73.84;92696.28;2058327;69;20157;-78
2021/09/20 04:28:12;;;;;;;1.20;0.32;;;;;;;13.03;70.85;92699.63;2057920;69;20594;-78
2021/09/20 04:30:38;;;;;;;0.10;0.10;;;;;;;13.05;72.80;92696.16;2057740;69;20169;-79
2021/09/20 04:33:03;;;;;;;0.68;0.40;;;;;;;13.10;71.62;92701.41;2058319;69;20208;-77
2021/09/20 04:35:29;;;;;;;2.80;0.40;;;;;;;13.00;72.59;92697.31;2058353;69;20165;-79
2021/09/20 04:37:54;;;;;;;0.55;0.20;;;;;;;13.01;71.87;92702.31;2058264;69;20129;-79
2021/09/20 04:40:20;;;;;;;0.80;0.20;;;;;;;12.96;74.03;92704.22;2058316;69;20168;-79
2021/09/20 04:42:46;;;;;;;0.47;0.22;;;;;;;13.04;72.73;92703.91;2058445;69;20173;-79
2021/09/20 04:45:11;;;;;;;0.80;0.30;;;;;;;13.04;72.56;92706.00;2058259;69;20150;-78
2021/09/20 04:47:38;;;;;;;0.98;0.30;;;;;;;13.08;72.15;92709.78;2058398;69;20184;-79
2021/09/20 04:50:04;;;;;;;4.85;0.47;;;;;;;13.00;73.56;92714.28;2058236;69;20177;-78
2021/09/20 04:52:30;;;;;;;4.07;0.30;;;;;;;12.98;73.51;92714.91;2058111;69;20220;-78
2021/09/20 04:54:56;;;;;;;1.48;0.40;;;;;;;13.00;72.31;92712.16;2058340;69;20165;-77
2021/09/20 04:57:21;;;;;;;1.52;0.30;;;;;;;13.14;70.68;92717.81;2057799;69;20211;-76
2021/09/20 04:59:47;;;;;;;1.67;0.32;;;;;;;13.12;72.20;92723.38;2058285;69;20204;-77
2021/09/20 05:02:13;;;;;;;1.88;0.38;;;;;;;13.21;69.52;92726.00;2058504;69;20144;-79
2021/09/20 05:04:38;;;;;;;1.77;0.50;;;;;;;13.10;71.09;92718.38;2058422;69;20152;-78
2021/09/20 05:07:04;;;;;;;2.90;0.60;;;;;;;13.12;70.33;92712.81;2058155;69;20141;-78
2021/09/20 05:09:30;;;;;;;1.20;0.55;;;;;;;13.10;71.08;92717.63;2058377;69;20675;-79
2021/09/20 05:11:55;;;;;;;0.70;0.50;;;;;;;12.94;71.31;92718.25;2058195;69;20196;-76
2021/09/20 05:14:21;;;;;;;1.38;0.50;;;;;;;13.00;73.15;92717.09;2058267;69;20601;-77
2021/09/20 05:16:47;;;;;;;1.05;0.57;;;;;;;12.95;72.51;92724.63;2058243;69;20173;-79
2021/09/20 05:19:13;;;;;;;1.05;0.65;;;;;;;12.92;73.77;92725.88;2058221;69;20145;-79
2021/09/20 05:21:38;;;;;;;2.25;0.73;;;;;;;13.06;71.35;92728.72;2058146;69;20237;-77
2021/09/20 05:24:04;;;;;;;1.83;0.70;;;;;;;13.03;73.70;92732.81;2058249;69;20197;-77
2021/09/20 05:26:30;;;;;;;1.38;0.50;;;;;;;13.06;72.49;92735.13;2058164;69;20236;-78
2021/09/20 05:28:56;;;;;;;2.40;0.50;;;;;;;13.02;73.06;92732.06;2058223;69;20585;-77
2021/09/20 05:31:21;;;;;;;0.63;0.50;;;;;;;13.10;72.30;92731.75;2057734;69;20145;-74
2021/09/20 05:33:47;;;;;;;2.47;0.60;;;;;;;13.05;73.25;92735.72;2058258;69;20176;-76
2021/09/20 05:36:13;;;;;;;1.10;0.60;;;;;;;13.05;74.14;92738.53;2058184;69;20150;-77
2021/09/20 05:38:38;;;;;;;1.27;0.80;;;;;;;13.13;73.23;92739.72;2058053;69;20606;-77
2021/09/20 05:41:04;;;;;;;3.92;0.70;;;;;;;13.17;71.44;92734.25;2058228;69;20195;-75
2021/09/20 05:43:30;;;;;;;1.13;0.52;;;;;;;13.15;71.79;92741.94;2058171;69;20510;-75
2021/09/20 05:45:56;;;;;;;2.13;0.60;;;;;;;13.22;72.16;92735.97;2058179;69;20181;-76
2021/09/20 05:48:21;;;;;;;0.80;0.60;;;;;;;13.15;74.29;92730.63;2058332;69;20570;-76
2021/09/20 05:50:47;;;;;;;0.75;0.50;;;;;;;13.19;74.15;92734.38;2058109;69;20157;-74
2021/09/20 05:53:14;;;;;;;4.15;0.57;;;;;;;13.19;73.90;92742.09;2058074;69;20150;-75
2021/09/20 05:55:40;;;;;;;0.35;0.35;;;;;;;13.30;70.33;92737.75;2058164;69;20598;-74
2021/09/20 05:58:06;;;;;;;1.10;0.30;;;;;;;13.23;73.89;92745.19;2054853;69;20653;-79
2021/09/20 06:00:33;;;;;;;0.40;0.32;;;;;;;13.40;71.70;92750.31;2058169;69;20144;-75
2021/09/20 06:02:58;;;;;;;3.00;0.40;;;;;;;13.42;73.29;92747.59;2058174;69;20165;-75
2021/09/20 06:05:25;;;;;;;0.90;0.30;;;;;;;13.39;73.90;92748.84;2058158;69;20674;-75
2021/09/20 06:07:50;;;;;;;0.57;0.40;;;;;;;13.44;72.77;92753.34;2058012;69;20146;-76
2021/09/20 06:10:17;;;;;;;1.00;0.40;;;;;;;13.44;74.06;92756.19;2058147;69;20144;-76
2021/09/20 06:12:44;;;;;;;0.82;0.43;;;;;;;13.55;73.22;92753.84;2057574;69;20148;-76
2021/09/20 06:15:12;;;;;;;5.00;1.20;;;;;;;13.47;72.76;92748.53;2057620;69;20161;-78
2021/09/20 06:17:38;;;;;;;3.10;1.15;;;;;;;13.54;70.93;92752.41;2058242;69;20267;-78
2021/09/20 06:20:06;;;;;;;1.35;0.77;;;;;;;13.38;75.42;92750.22;2058148;69;20164;-75
2021/09/20 06:22:33;;;;;;;3.35;0.60;;;;;;;13.45;74.67;92746.31;2058010;69;20144;-76
2021/09/20 06:24:59;;;;;;;2.67;0.70;;;;;;;13.50;74.07;92749.34;2058082;69;20168;-78
2021/09/20 06:27:26;;;;;;;0.95;0.70;;;;;;;13.65;72.93;92743.81;2058055;69;20240;-78
2021/09/20 06:29:52;;;;;;;1.20;0.90;;;;;;;13.69;72.86;92749.63;2058048;69;20152;-79
2021/09/20 06:32:18;;;;;;;1.15;0.75;;;;;;;13.78;72.22;92744.38;2058026;69;20142;-78
2021/09/20 06:34:44;;;;;;;0.98;0.70;;;;;;;13.82;71.49;92753.81;2058065;69;20185;-79
2021/09/20 06:37:10;;;;;;;6.97;2.13;;;;;;;13.30;76.29;92749.06;2058080;69;20231;-80
2021/09/20 06:39:35;;;;;;;3.25;1.58;;;;;;;13.54;75.04;92755.94;2057936;69;20624;-80
2021/09/20 06:42:02;;;;;;;1.67;1.10;;;;;;;13.72;74.24;92751.22;2057676;69;20149;-80
2021/09/20 06:44:28;;;;;;;1.40;0.90;;;;;;;13.80;73.99;92756.56;2058150;69;20155;-79
2021/09/20 06:46:55;;;;;;;2.17;1.10;;;;;;;13.75;74.29;92754.16;2058038;69;20207;-79
2021/09/20 06:49:22;;;;;;;1.77;0.98;;;;;;;13.84;72.98;92759.59;2058002;69;20146;-80
2021/09/20 06:51:48;;;;;;;2.22;1.23;;;;;;;13.78;72.74;92759.25;2057888;69;20149;-77
2021/09/20 06:54:13;;;;;;;9.75;5.70;;;;;;;13.76;73.50;92756.34;2058058;69;20181;-79
2021/09/20 06:56:39;;;;;;;3.58;2.67;;;;;;;13.61;73.34;92759.84;2057994;69;20153;-79
2021/09/20 06:59:05;;;;;;;2.20;1.70;;;;;;;13.86;73.47;92753.28;2058076;69;20207;-79
2021/09/20 07:01:30;;;;;;;5.82;1.70;;;;;;;13.93;73.21;92752.97;2058183;69;20146;-79
2021/09/20 07:03:56;;;;;;;2.88;2.00;;;;;;;13.88;73.03;92756.19;2058138;69;20172;-78
2021/09/20 07:06:21;;;;;;;2.30;1.60;;;;;;;13.50;74.59;92755.00;2058045;69;20153;-77
2021/09/20 07:08:47;;;;;;;2.63;1.30;;;;;;;13.48;73.87;92752.81;2058062;69;20138;-78
2021/09/20 07:11:13;;;;;;;3.80;1.95;;;;;;;13.88;71.68;92750.53;2058120;69;20181;-79
2021/09/20 07:13:39;;;;;;;3.50;1.88;;;;;;;14.01;72.12;92754.72;2057997;69;20138;-79
2021/09/20 07:16:04;;;;;;;6.28;2.00;;;;;;;13.82;73.83;92756.66;2058140;69;20590;-79
2021/09/20 07:18:30;;;;;;;2.28;1.30;;;;;;;13.95;72.96;92758.72;2058119;69;20141;-77
2021/09/20 07:20:56;;;;;;;2.50;1.40;;;;;;;13.93;72.63;92758.63;2057942;69;20172;-79
2021/09/20 07:23:21;;;;;;;6.05;3.10;;;;;;;13.75;72.76;92762.66;2057847;69;20207;-79
2021/09/20 07:25:47;;;;;;;5.72;3.00;;;;;;;14.05;72.01;92758.47;2057972;69;20219;-78
2021/09/20 07:28:12;;;;;;;5.95;4.10;;;;;;;14.17;71.85;92767.56;2058102;69;20158;-78
2021/09/20 07:30:39;;;;;;;4.70;3.13;;;;;;;14.14;70.00;92765.25;2057995;69;20158;-79
2021/09/20 07:33:05;;;;;;;4.35;3.40;;;;;;;13.69;73.55;92765.88;2057919;69;20174;-78
2021/09/20 07:35:30;;;;;;;3.92;2.80;;;;;;;14.06;71.97;92773.34;2058103;69;20137;-76
2021/09/20 07:37:56;;;;;;;2.67;1.90;;;;;;;13.89;73.28;92777.50;2057875;69;20620;-75
2021/09/20 07:40:25;;;;;;;3.33;1.60;;;;;;;13.89;72.58;92777.50;2058082;69;20639;-74
2021/09/20 07:42:53;;;;;;;3.15;1.33;;;;;;;13.52;74.87;92783.41;2058168;69;20669;-77
2021/09/20 07:45:18;;;;;;;4.63;1.60;;;;;;;13.98;72.58;92787.84;2057975;69;20141;-75
2021/09/20 07:47:44;;;;;;;1.73;1.40;;;;;;;14.21;71.57;92781.19;2057932;69;20537;-76
2021/09/20 07:50:11;;;;;;;8.35;6.10;;;;;;;14.24;70.90;92786.31;2057943;69;20165;-77
2021/09/20 07:52:37;;;;;;;5.60;5.10;;;;;;;14.45;68.45;92795.78;2057802;69;20237;-78
2021/09/20 07:55:05;;;;;;;2.17;1.70;;;;;;;13.94;70.33;92787.66;2057922;69;20150;-80
2021/09/20 07:57:31;;;;;;;3.92;2.75;;;;;;;14.08;70.20;92794.00;2057370;69;20513;-78
2021/09/20 07:59:57;;;;;;;2.22;1.40;;;;;;;14.28;67.13;92799.94;2057881;69;20187;-78
2021/09/20 08:02:24;;;;;;;3.05;1.27;;;;;;;14.45;68.16;92810.69;2058097;69;20157;-78
2021/09/20 08:04:50;;;;;;;0.98;0.85;;;;;;;14.61;65.38;92802.25;2058010;69;20184;-76
2021/09/20 08:07:15;;;;;;;3.33;0.95;;;;;;;14.52;66.13;92808.88;2057868;69;20253;-76
2021/09/20 08:09:41;;;;;;;2.45;1.08;;;;;;;14.58;66.57;92809.19;2058032;69;20181;-79
2021/09/20 08:12:08;;;;;;;1.42;1.20;;;;;;;14.71;66.27;92805.56;2057914;69;20145;-77
2021/09/20 08:14:34;;;;;;;1.33;0.95;;;;;;;13.73;72.11;92814.91;2057843;69;20506;-76
2021/09/20 08:16:59;;;;;;;3.13;2.10;;;;;;;13.72;72.48;92812.72;2057916;69;20144;-75
2021/09/20 08:19:25;;;;;;;2.28;1.40;;;;;;;13.45;74.89;92817.03;2057861;69;20598;-76
2021/09/20 08:21:51;;;;;;;1.27;0.85;;;;;;;13.60;73.62;92814.91;2057794;69;20178;-79
2021/09/20 08:24:17;;;;;;;2.35;1.15;;;;;;;13.68;73.30;92818.91;2057842;69;20138;-80
2021/09/20 08:26:43;;;;;;;1.83;1.35;;;;;;;14.15;71.75;92823.34;2057846;69;20180;-80
2021/09/20 08:29:09;;;;;;;2.85;0.95;;;;;;;14.13;70.30;92823.25;2057885;69;20580;-77
2021/09/20 08:31:35;;;;;;;3.55;1.17;;;;;;;14.32;70.38;92827.72;2057955;69;20212;-77
2021/09/20 08:34:01;;;;;;;2.30;1.05;;;;;;;14.15;70.73;92831.84;2057925;69;20227;-78
2021/09/20 08:36:27;;;;;;;2.90;0.80;;;;;;;14.03;70.04;92846.13;2057784;69;20158;-79
2021/09/20 08:38:52;;;;;;;3.60;1.30;;;;;;;13.66;73.08;92840.72;2057646;69;20251;-78
2021/09/20 08:41:18;;;;;;;3.25;1.88;;;;;;;13.94;71.73;92839.31;2058056;69;20637;-78
2021/09/20 08:43:45;;;;;;;4.07;1.55;;;;;;;14.22;69.42;92839.28;2057842;69;20617;-80
2021/09/20 08:46:12;;;;;;;4.13;1.30;;;;;;;14.11;71.20;92849.38;2057834;69;20212;-81
2021/09/20 08:48:46;;;;;;;1.85;1.27;;;;;;;14.61;69.07;92839.06;2057830;69;20134;-81
2021/09/20 08:51:13;;;;;;;1.80;1.30;;;;;;;14.44;69.08;92846.03;2057856;69;20150;-82
2021/09/20 08:53:39;;;;;;;4.88;1.40;;;;;;;14.86;68.42;92849.47;2057820;69;20181;-79
2021/09/20 08:56:06;;;;;;;2.28;1.10;;;;;;;14.18;69.55;92851.13;2057807;69;20149;-78
2021/09/20 08:58:32;;;;;;;1.80;1.17;;;;;;;14.57;69.07;92855.13;2057777;69;20713;-79
2021/09/20 09:00:58;;;;;;;2.65;1.40;;;;;;;14.54;68.01;92843.00;2057861;69;20149;-78
2021/09/20 09:03:25;;;;;;;2.47;1.10;;;;;;;15.05;67.16;92848.22;2058318;69;20265;-79
2021/09/20 09:05:51;;;;;;;2.75;1.42;;;;;;;14.81;68.20;92852.75;2058304;69;20142;-78
2021/09/20 09:08:18;;;;;;;1.10;0.80;;;;;;;15.51;65.69;92849.63;2058203;69;20148;-79
2021/09/20 09:10:58;;;;;;;2.67;0.90;;;;;;;16.02;64.69;92851.16;2058282;69;20146;-78
2021/09/20 09:13:33;;;;;;;3.58;1.00;;;;;;;16.78;64.27;92843.69;2057741;69;20601;-79
2021/09/20 09:16:13;;;;;;;1.35;0.90;;;;;;;17.26;63.55;92841.25;2058391;69;20160;-76
2021/09/20 09:19:00;;;;;;;2.42;1.00;;;;;;;17.34;60.12;92838.75;2058312;69;20170;-76
2021/09/20 09:21:45;;;;;;;5.82;0.93;;;;;;;17.19;60.08;92846.00;2058263;69;20149;-76
2021/09/20 09:24:16;;;;;;;2.63;1.23;;;;;;;17.10;58.11;92844.22;2058319;69;20142;-75
2021/09/20 09:26:57;;;;;;;1.60;0.95;;;;;;;16.99;60.03;92830.97;2058222;69;20150;-73
2021/09/20 09:29:23;;;;;;;1.75;0.80;;;;;;;17.40;59.84;92836.13;2058445;69;20196;-74
2021/09/20 09:31:54;;;;;;;2.10;0.80;;;;;;;17.54;58.47;92845.19;2058264;69;20518;-77
2021/09/20 09:34:26;;;;;;;0.93;0.80;;;;;;;17.83;57.47;92842.69;2058185;69;20154;-76
2021/09/20 09:37:05;;;;;;;3.08;0.77;;;;;;;17.99;55.89;92835.44;2058196;69;20153;-76
2021/09/20 09:39:31;;;;;;;0.60;0.60;;;;;;;17.05;57.00;92841.88;2058325;69;20190;-76
2021/09/20 09:41:57;;;;;;;3.20;0.60;;;;;;;17.66;56.74;92833.53;2058390;69;20181;-77
2021/09/20 09:44:31;;;;;;;1.63;0.70;;;;;;;18.32;55.63;92836.56;2058207;69;20149;-78
2021/09/20 09:46:57;;;;;;;2.30;1.63;;;;;;;18.58;56.24;92827.47;2056923;69;20318;-75
2021/09/20 09:49:24;;;;;;;3.88;2.28;;;;;;;18.92;55.28;92828.63;2057402;69;20165;-78
2021/09/20 09:52:05;;;;;;;1.35;0.80;;;;;;;19.76;53.96;92828.31;2056817;69;20200;-77
2021/09/20 09:54:33;;;;;;;6.70;1.50;;;;;;;20.02;52.89;92822.59;2057344;69;20153;-74
2021/09/20 09:57:11;;;;;;;3.22;2.20;;;;;;;20.27;51.05;92821.88;2057498;69;20221;-74
2021/09/20 09:59:38;;;;;;;1.67;1.13;;;;;;;20.45;49.95;92827.34;2057727;69;20149;-75
2021/09/20 10:02:18;;;;;;;0.60;0.60;;;;;;;20.34;50.30;92822.75;2058163;69;20157;-75
2021/09/20 10:05:01;;;;;;;1.55;1.30;;;;;;;21.25;47.28;92827.16;2057585;69;20229;-76
2021/09/20 10:07:30;;;;;;;1.20;1.00;;;;;;;20.99;46.97;92820.84;2057995;69;20517;-77
2021/09/20 10:09:57;;;;;;;2.67;1.05;;;;;;;21.99;46.50;92817.31;2058377;69;20264;-80
2021/09/20 10:12:25;;;;;;;3.72;1.00;;;;;;;22.74;46.75;92818.78;2057972;69;20142;-77
2021/09/20 10:14:53;;;;;;;4.25;2.00;;;;;;;22.38;45.10;92812.38;2057552;69;20589;-81
2021/09/20 10:17:21;;;;;;;1.75;1.40;;;;;;;23.14;43.59;92809.41;2058294;69;20586;-77
2021/09/20 10:19:47;;;;;;;0.60;0.57;;;;;;;23.46;42.00;92817.06;2058128;69;20170;-80
2021/09/20 10:22:15;;;;;;;1.50;0.60;;;;;;;23.44;41.75;92811.28;2058916;69;20161;-91
2021/09/20 10:24:46;;;;;;;1.95;0.70;;;;;;;23.41;42.92;92804.78;2057827;69;20269;-82
2021/09/20 10:27:14;;;;;;;1.83;0.73;;;;;;;24.04;41.75;92802.78;2058171;69;20216;-82
2021/09/20 10:29:45;;;;;;;1.08;0.70;;;;;;;23.27;41.83;92807.44;2058029;69;20240;-80
2021/09/20 10:32:11;;;;;;;2.65;1.38;;;;;;;24.26;39.90;92799.44;2058183;69;20137;-81
2021/09/20 10:34:37;;;;;;;1.23;0.70;;;;;;;25.01;40.19;92795.88;2057570;69;20602;-80
2021/09/20 10:37:15;;;;;;;6.20;0.65;;;;;;;24.77;40.18;92794.25;2058065;69;20161;-82
2021/09/20 10:40:04;;;;;;;0.75;0.50;;;;;;;25.35;38.09;92796.19;2057912;69;20215;-83
2021/09/20 10:42:35;;;;;;;1.02;0.63;;;;;;;25.10;39.24;92794.53;2057985;69;20145;-81
2021/09/20 10:45:03;;;;;;;1.23;0.53;;;;;;;24.94;37.16;92792.22;2057443;69;20604;-83
2021/09/20 10:47:42;;;;;;;0.93;0.60;;;;;;;25.52;35.01;92788.38;2058085;69;20149;-83
2021/09/20 10:50:09;;;;;;;0.65;0.60;;;;;;;24.29;35.97;92789.41;2057922;69;20253;-83
2021/09/20 10:52:34;;;;;;;1.90;0.70;;;;;;;25.57;33.52;92783.38;2057892;69;20155;-82
2021/09/20 10:55:08;;;;;;;1.33;0.70;;;;;;;25.65;33.67;92782.69;2058245;69;20587;-82
2021/09/20 10:57:35;;;;;;;1.98;0.95;;;;;;;26.83;32.87;92783.16;2058249;69;20150;-81
2021/09/20 11:00:23;;;;;;;1.08;0.75;;;;;;;28.81;29.60;92779.84;2058132;69;20153;-80
2021/09/20 11:02:49;;;;;;;0.65;0.50;;;;;;;28.61;31.24;92769.09;2058200;69;20153;-80
2021/09/20 11:05:14;;;;;;;0.50;0.50;;;;;;;27.30;31.63;92769.47;2058120;69;20149;-75
2021/09/20 11:07:48;;;;;;;0.60;0.60;;;;;;;29.18;30.11;92774.53;2057966;69;20669;-81
2021/09/20 11:10:14;;;;;;;1.98;0.95;;;;;;;30.87;28.11;92774.91;2058224;69;20140;-81
2021/09/20 11:13:09;;;;;;;0.65;0.50;;;;;;;29.99;28.27;92773.06;2058086;69;20149;-81
2021/09/20 11:15:40;;;;;;;2.58;0.70;;;;;;;30.46;29.23;92774.72;2059095;69;20169;-80
2021/09/20 11:18:06;;;;;;;0.63;0.60;;;;;;;31.59;26.89;92771.63;2063020;69;20146;-81
2021/09/20 11:20:41;;;;;;;1.67;0.93;;;;;;;29.54;28.29;92764.06;2058538;69;20150;-82
2021/09/20 11:23:18;;;;;;;0.60;0.60;;;;;;;29.52;28.79;92750.31;2057970;69;20240;-81
2021/09/20 11:26:13;;;;;;;0.95;0.70;;;;;;;29.20;29.06;92745.53;2058173;69;20138;-80
2021/09/20 11:28:44;;;;;;;1.42;1.00;;;;;;;27.57;29.94;92744.13;2058188;69;20597;-79
2021/09/20 11:31:11;;;;;;;2.33;0.97;;;;;;;29.01;28.77;92750.75;2058048;69;20149;-81
2021/09/20 11:33:40;;;;;;;1.70;0.90;;;;;;;28.15;32.19;92746.88;2058002;69;20375;-81